Ashland, Kansas
Current Conditions -  °F | °C
As of 6:52 AM on Saturday 01 Nov 2014 (Local Time) from KDDC Reporting Station
Clear Clear  
Wind Chill: 20°   Ceiling: Unl
Heat Index: 32°   Visibility: 10mi
Dew Point: 16°   Wind: 18mph
Humidity: 52%   Direction: 160°SSE
Pressure: 30.27"   Gusts: NA
Location:  37.19°N, 99.77°W
Report Text: KDDC 011152Z AUTO 16016KT 10SM CLR 00/M09 A3027 RMK AO2 SLP263 T00001089 10017 20000 56007
Loading
Personal Weather Stations






























Interactive Weather Map
Tropical Storm Tracking
New forecast layout! Learn more

10-Day Weather Forecast

Advertisements
Track Severe Weather on mobile